Detall de PIREP

Printer-friendly versionPDF version

[2017/08/26 10:17:00]
Flight IATA:CT0001
Pilot Number:012
Company ICAO:CAT
Aircraft Type:F70/A
PAX:70
Aircraft Registration:PFJ
Departing Airport: LEBL
Destination Airport: LEMH
Alternate Airport:LEBL
Online: VATSIM
Route:DUNES H70 SARGO
Flight Level:F170
No Slew and time accel
No pause
Crash detect
Detect pilot in Cockpit between each 30 and 45 minutes
10:17 Zero fuel Weight: 70969 Lbs, Fuel Weight: 12356 Lbs
10:17 VATSIM:LEBL 261000Z 09008KT 060V120 9999 FEW018 28/22 Q1017 NOSIG
10:17 VATSIM:LEMH 261000Z 10010KT 060V140 9999 FEW018 29/22 Q1017
10:17 Parking Brakes off
10:23 Take-off
10:23 Take off Weight: 82970 Lbs
10:23 Wind: 083º @ 008 Knots Heading: 065º
10:23 POS N41º 17´ 17´´ E002º 05´ 31´´
10:23 Gear Up: 154 Knots
10:23 Flaps:1 at 154 Knots
10:24 Flaps:0 at 196 Knots
10:32 TOC
10:32 Fuel Weight: 10870 Lb
10:38 Wind:250º@012 Knots Heading: 119º Ground Speed: 403 Knots Altitude 17112 ft
10:41 TOD
10:41 Fuel Weight: 10018 Lb
10:53 Wind:096º@010 Knots Heading: 128º Ground Speed: 240 Knots Altitude 2998 ft
10:55 Gear Down: 235 Knots
10:55 Flaps:1 at 228 Knots
10:55 Flaps:2 at 203 Knots
10:55 Flaps:3 at 175 Knots
10:56 Flaps:4 at 150 Knots
10:58 TouchDown:Rate -320 ft/min Speed: 120 Knots
10:58 VATSIM:LEMH 261030Z 10010KT 020V150 9999 FEW018 29/22 Q1017
10:58 Land
10:58 Wind:098º@010 Knots
10:58 Heading: 007º
10:58 Flight Duration: 00:35
10:58 Landing Weight: 80266 Lbs
10:58 POS N39º 51´ 52´´ E004º 13´ 08´´
11:01 Parking brakes on
11:01 Block to Block Duration: 00:44
11:01 Final Fuel: 9215 Lbls
11:01 Spent Fuel: 3141 Lbls
11:01 Flight Length: 177 NM
11:01 TOD Land Length: 74 NM

Exportar CSV

Powered by Drupal - Modified by Danger4k